createdAt,value
2022-10-26T00:01:28.460Z,12.90
2022-10-26T00:03:58.619Z,12.90
2022-10-26T00:06:29.037Z,12.90
2022-10-26T00:08:58.769Z,12.90
2022-10-26T00:11:27.418Z,12.90
2022-10-26T00:13:55.942Z,12.90
2022-10-26T00:16:27.445Z,12.90
2022-10-26T00:18:57.547Z,12.80
2022-10-26T00:21:26.387Z,12.80
2022-10-26T00:23:54.895Z,12.80
2022-10-26T00:26:23.411Z,12.80
2022-10-26T00:28:54.876Z,12.80
2022-10-26T00:31:23.446Z,12.80
2022-10-26T00:33:54.933Z,12.70
2022-10-26T00:36:26.207Z,12.70
2022-10-26T00:38:56.464Z,12.70
2022-10-26T00:41:27.724Z,12.70
2022-10-26T00:43:57.159Z,12.70
2022-10-26T00:46:29.645Z,12.70
2022-10-26T00:49:02.806Z,12.60
2022-10-26T00:51:39.029Z,12.60
2022-10-26T00:54:13.033Z,12.60
2022-10-26T00:56:42.330Z,12.50
2022-10-26T00:59:14.913Z,12.50
2022-10-26T01:01:46.834Z,12.50
2022-10-26T01:04:16.699Z,12.50
2022-10-26T01:06:47.469Z,12.40
2022-10-26T01:09:16.812Z,12.40
2022-10-26T01:11:45.325Z,12.40
2022-10-26T01:14:15.646Z,12.40
2022-10-26T01:16:59.734Z,12.40
2022-10-26T01:20:15.735Z,12.40
2022-10-26T01:22:53.092Z,12.30
2022-10-26T01:25:52.851Z,12.30
2022-10-26T01:28:41.655Z,12.30
2022-10-26T01:31:18.403Z,12.30
2022-10-26T01:33:52.939Z,12.30
2022-10-26T01:36:34.036Z,12.30
2022-10-26T01:39:11.659Z,12.20
2022-10-26T01:41:47.216Z,12.20
2022-10-26T01:44:21.917Z,12.20
2022-10-26T01:46:56.153Z,12.20
2022-10-26T01:49:30.264Z,12.20
2022-10-26T01:51:58.808Z,12.20
2022-10-26T01:54:27.516Z,12.20
2022-10-26T01:57:01.328Z,12.10
2022-10-26T02:00:05.708Z,12.10
2022-10-26T02:03:01.856Z,12.10
2022-10-26T02:05:52.711Z,12.10
2022-10-26T02:08:59.250Z,12.10
2022-10-26T02:11:39.723Z,12.10
2022-10-26T02:14:16.167Z,12.10
2022-10-26T02:16:56.224Z,12.00
2022-10-26T02:19:40.047Z,12.00
2022-10-26T02:22:20.304Z,11.90
2022-10-26T02:24:52.697Z,12.00
2022-10-26T02:27:27.029Z,11.90
2022-10-26T02:29:58.158Z,11.90
2022-10-26T02:32:31.763Z,11.90
2022-10-26T02:35:04.283Z,11.90
2022-10-26T02:37:35.890Z,11.80
2022-10-26T02:40:11.282Z,11.80
2022-10-26T02:42:43.529Z,11.80
2022-10-26T02:45:18.836Z,11.80
2022-10-26T02:47:47.804Z,11.70
2022-10-26T02:50:19.167Z,11.70
2022-10-26T02:52:55.369Z,11.70
2022-10-26T02:55:29.354Z,11.70
2022-10-26T02:58:03.131Z,11.70
2022-10-26T03:00:32.198Z,11.70
2022-10-26T03:03:02.931Z,11.70
2022-10-26T03:05:34.419Z,11.60
2022-10-26T03:08:03.958Z,11.60
2022-10-26T03:10:35.150Z,11.60
2022-10-26T03:13:03.686Z,11.60
2022-10-26T03:15:32.217Z,11.50
2022-10-26T03:18:00.775Z,11.50
2022-10-26T03:20:30.102Z,11.50
2022-10-26T03:23:00.081Z,11.50
2022-10-26T03:25:28.742Z,11.50
2022-10-26T03:28:01.425Z,11.50
2022-10-26T03:30:31.838Z,11.50
2022-10-26T03:33:00.361Z,11.40
2022-10-26T03:35:28.878Z,11.50
2022-10-26T03:37:57.633Z,11.40
2022-10-26T03:40:27.592Z,11.40
2022-10-26T03:42:56.048Z,11.40
2022-10-26T03:45:24.634Z,11.40
2022-10-26T03:47:53.233Z,11.40
2022-10-26T03:50:23.547Z,11.40
2022-10-26T03:52:52.371Z,11.40
2022-10-26T03:55:21.076Z,11.40
2022-10-26T03:57:51.049Z,11.30
2022-10-26T04:00:20.046Z,11.40
2022-10-26T04:02:56.841Z,11.30
2022-10-26T04:05:26.507Z,11.30
2022-10-26T04:07:55.965Z,11.30
2022-10-26T04:10:25.387Z,11.30
2022-10-26T04:12:56.033Z,11.30
2022-10-26T04:15:25.022Z,11.30
2022-10-26T04:17:58.236Z,11.30
2022-10-26T04:20:27.992Z,11.20
2022-10-26T04:23:01.216Z,11.20
2022-10-26T04:25:32.839Z,11.30
2022-10-26T04:28:05.644Z,11.20
2022-10-26T04:30:35.539Z,11.20
2022-10-26T04:33:04.447Z,11.20
2022-10-26T04:35:33.425Z,11.10
2022-10-26T04:38:03.166Z,11.10
2022-10-26T04:40:33.791Z,11.10
2022-10-26T04:43:03.849Z,11.10
2022-10-26T04:45:32.659Z,11.10
2022-10-26T04:48:04.457Z,11.00
2022-10-26T04:50:33.512Z,11.00
2022-10-26T04:53:05.190Z,11.00
2022-10-26T04:55:33.887Z,11.00
2022-10-26T04:58:04.245Z,11.00
2022-10-26T05:00:33.819Z,11.00
2022-10-26T05:03:02.640Z,10.90
2022-10-26T05:05:33.671Z,10.90
2022-10-26T05:08:02.452Z,10.90
2022-10-26T05:10:31.449Z,11.00
2022-10-26T05:13:02.856Z,10.90
2022-10-26T05:15:32.028Z,10.90
2022-10-26T05:18:02.899Z,10.90
2022-10-26T05:20:35.032Z,10.90
2022-10-26T05:23:05.888Z,10.90
2022-10-26T05:25:37.638Z,10.90
2022-10-26T05:28:11.760Z,10.90
2022-10-26T05:30:41.224Z,10.90
2022-10-26T05:33:11.832Z,10.90
2022-10-26T05:35:40.981Z,10.90
2022-10-26T05:38:10.694Z,10.90
2022-10-26T05:40:39.275Z,10.90
2022-10-26T05:43:10.092Z,10.90
2022-10-26T05:45:38.637Z,10.90
2022-10-26T05:48:07.913Z,10.90
2022-10-26T05:50:36.932Z,10.90
2022-10-26T05:53:05.616Z,10.90
2022-10-26T05:55:35.400Z,10.90
2022-10-26T05:58:04.664Z,10.90
2022-10-26T06:00:35.701Z,10.90
2022-10-26T06:03:18.358Z,11.00
2022-10-26T06:05:56.131Z,11.00
2022-10-26T06:08:28.337Z,11.00
2022-10-26T06:10:59.727Z,11.00
2022-10-26T06:13:29.305Z,11.00
2022-10-26T06:16:19.987Z,11.00
2022-10-26T06:19:02.118Z,11.00
2022-10-26T06:21:49.416Z,11.00
2022-10-26T06:24:27.351Z,11.10
2022-10-26T06:27:03.179Z,11.10
2022-10-26T06:29:46.191Z,11.10
2022-10-26T06:32:16.108Z,11.10
2022-10-26T06:34:49.923Z,11.10
2022-10-26T06:37:19.116Z,11.10
2022-10-26T06:39:53.915Z,11.20
2022-10-26T06:42:24.187Z,11.20
2022-10-26T06:44:53.604Z,11.20
2022-10-26T06:47:31.331Z,11.20
2022-10-26T06:50:07.110Z,11.20
2022-10-26T06:52:42.844Z,11.30
2022-10-26T06:55:16.377Z,11.30
2022-10-26T06:57:46.332Z,11.30
2022-10-26T07:00:20.828Z,11.30
2022-10-26T07:02:51.277Z,11.40
2022-10-26T07:05:20.285Z,11.40
2022-10-26T07:07:49.890Z,11.50
2022-10-26T07:10:18.616Z,11.50
2022-10-26T07:12:47.199Z,11.50
2022-10-26T07:15:15.893Z,11.50
2022-10-26T07:17:45.958Z,11.60
2022-10-26T07:20:17.315Z,11.60
2022-10-26T07:22:45.887Z,11.60
2022-10-26T07:25:14.691Z,11.60
2022-10-26T07:27:43.227Z,11.70
2022-10-26T07:30:12.897Z,11.70
2022-10-26T07:32:41.692Z,11.70
2022-10-26T07:35:10.615Z,11.70
2022-10-26T07:37:40.554Z,11.80
2022-10-26T07:40:10.337Z,11.80
2022-10-26T07:42:39.710Z,11.80
2022-10-26T07:45:09.896Z,11.80
2022-10-26T07:47:38.462Z,11.80
2022-10-26T07:50:08.607Z,11.90
2022-10-26T07:52:38.917Z,11.90
2022-10-26T07:55:10.831Z,11.90
2022-10-26T07:57:39.535Z,11.90
2022-10-26T08:00:11.000Z,12.00
2022-10-26T08:02:39.592Z,12.00
2022-10-26T08:05:09.257Z,12.00
2022-10-26T08:07:43.871Z,12.10
2022-10-26T08:10:14.868Z,12.10
2022-10-26T08:12:44.553Z,12.10
2022-10-26T08:15:13.374Z,12.10
2022-10-26T08:17:41.933Z,12.20
2022-10-26T08:20:13.014Z,12.20
2022-10-26T08:22:41.625Z,12.30
2022-10-26T08:25:10.563Z,12.30
2022-10-26T08:27:40.473Z,12.40
2022-10-26T08:30:09.947Z,12.40
2022-10-26T08:32:38.505Z,12.50
2022-10-26T08:35:07.913Z,12.50
2022-10-26T08:37:36.885Z,12.60
2022-10-26T08:40:05.995Z,12.60
2022-10-26T08:42:42.037Z,12.70
2022-10-26T08:45:28.773Z,12.80
2022-10-26T08:48:03.526Z,12.80
2022-10-26T08:50:39.242Z,12.90
2022-10-26T08:53:17.278Z,13.00
2022-10-26T08:55:51.798Z,13.00
2022-10-26T08:58:26.629Z,13.20
2022-10-26T09:00:55.540Z,13.20
2022-10-26T09:03:24.089Z,13.30
2022-10-26T09:06:10.360Z,13.40
2022-10-26T09:08:52.641Z,13.50
2022-10-26T09:11:37.867Z,13.60
2022-10-26T09:14:17.334Z,13.80
2022-10-26T09:17:02.647Z,13.90
2022-10-26T09:20:06.267Z,14.00
2022-10-26T09:22:48.285Z,14.20
2022-10-26T09:25:21.719Z,14.30
2022-10-26T09:27:53.546Z,14.40
2022-10-26T09:30:24.086Z,14.50
2022-10-26T09:32:56.645Z,14.70
2022-10-26T09:38:05.352Z,14.90
2022-10-26T09:40:41.877Z,15.10
2022-10-26T09:43:21.133Z,15.20
2022-10-26T09:45:53.774Z,15.30
2022-10-26T09:48:34.303Z,15.50
2022-10-26T09:51:04.758Z,15.60
2022-10-26T09:53:34.062Z,15.70
2022-10-26T09:56:07.434Z,15.90
2022-10-26T09:58:47.010Z,16.00
2022-10-26T10:01:35.529Z,16.10
2022-10-26T10:04:22.657Z,16.30
2022-10-26T10:06:53.879Z,16.40
2022-10-26T10:09:24.814Z,16.60
2022-10-26T10:11:59.120Z,16.70
2022-10-26T10:14:32.607Z,16.80
2022-10-26T10:17:09.831Z,17.00
2022-10-26T10:19:39.974Z,17.10
2022-10-26T10:22:19.006Z,17.20
2022-10-26T10:24:57.018Z,17.40
2022-10-26T10:27:27.164Z,17.50
2022-10-26T10:29:59.996Z,17.60
2022-10-26T10:32:37.230Z,17.70
2022-10-26T10:35:26.451Z,17.80
2022-10-26T10:37:55.148Z,17.90
2022-10-26T10:40:26.672Z,18.00
2022-10-26T10:43:05.324Z,18.10
2022-10-26T10:45:34.629Z,18.20
2022-10-26T10:48:13.873Z,18.30
2022-10-26T10:50:54.795Z,18.40
2022-10-26T10:53:27.775Z,18.50
2022-10-26T10:56:13.097Z,18.50
2022-10-26T10:58:52.581Z,18.60
2022-10-26T11:01:24.349Z,18.70
2022-10-26T11:04:17.070Z,18.70
2022-10-26T11:06:48.183Z,18.80
2022-10-26T11:09:21.959Z,18.90
2022-10-26T11:11:55.423Z,18.90
2022-10-26T11:14:29.510Z,19.00
2022-10-26T11:17:05.632Z,19.10
2022-10-26T11:19:43.445Z,19.10
2022-10-26T11:22:17.392Z,19.20
2022-10-26T11:24:51.084Z,19.20
2022-10-26T11:27:26.656Z,19.30
2022-10-26T11:30:03.861Z,19.30
2022-10-26T11:32:38.801Z,19.40
2022-10-26T11:35:16.345Z,19.40
2022-10-26T11:37:51.739Z,19.40
2022-10-26T11:40:37.201Z,19.50
2022-10-26T11:43:15.986Z,19.50
2022-10-26T11:45:47.312Z,19.60
2022-10-26T11:48:23.361Z,19.60
2022-10-26T11:50:57.928Z,19.60
2022-10-26T11:53:31.797Z,19.70
2022-10-26T11:56:02.243Z,19.70
2022-10-26T11:58:33.091Z,19.80
2022-10-26T12:01:06.034Z,19.80
2022-10-26T12:03:38.953Z,19.80
2022-10-26T12:06:09.734Z,19.90
2022-10-26T12:08:42.936Z,19.90
2022-10-26T12:11:21.191Z,20.00
2022-10-26T12:13:56.436Z,20.00
2022-10-26T12:16:44.201Z,20.00
2022-10-26T12:19:20.601Z,20.00
2022-10-26T12:21:52.189Z,20.10
2022-10-26T12:24:30.723Z,20.10
2022-10-26T12:27:00.480Z,20.10
2022-10-26T12:29:50.256Z,20.20
2022-10-26T12:32:54.353Z,20.20
2022-10-26T12:35:43.585Z,20.20
2022-10-26T12:39:00.221Z,20.20
2022-10-26T12:41:29.729Z,20.20
2022-10-26T12:44:04.833Z,20.30
2022-10-26T12:46:40.411Z,20.30
2022-10-26T12:50:00.381Z,20.30
2022-10-26T12:52:52.998Z,20.40
2022-10-26T12:56:03.787Z,20.30
2022-10-26T12:59:19.123Z,20.40
2022-10-26T13:02:35.010Z,20.40
2022-10-26T13:05:30.999Z,20.40
2022-10-26T13:08:04.873Z,20.40
2022-10-26T13:10:36.640Z,20.50
2022-10-26T13:13:08.443Z,20.50
2022-10-26T13:15:41.025Z,20.50
2022-10-26T13:18:12.122Z,20.50
2022-10-26T13:20:55.539Z,20.50
2022-10-26T13:23:28.580Z,20.60
2022-10-26T13:26:12.135Z,20.50
2022-10-26T13:28:57.136Z,20.50
2022-10-26T13:31:57.147Z,20.60
2022-10-26T13:34:29.739Z,20.60
2022-10-26T13:37:18.912Z,20.50
2022-10-26T13:39:49.240Z,20.50
2022-10-26T13:42:23.367Z,20.50
2022-10-26T13:44:55.935Z,20.50
2022-10-26T13:47:31.363Z,20.40
2022-10-26T13:50:06.874Z,20.40
2022-10-26T13:52:39.097Z,20.40
2022-10-26T13:55:16.693Z,20.40
2022-10-26T13:58:02.485Z,20.40
2022-10-26T14:00:31.132Z,20.40
2022-10-26T14:02:59.670Z,20.40
2022-10-26T14:05:28.425Z,20.40
2022-10-26T14:07:59.074Z,20.40
2022-10-26T14:10:31.775Z,20.40
2022-10-26T14:13:02.515Z,20.40
2022-10-26T14:15:33.635Z,20.30
2022-10-26T14:18:04.353Z,20.30
2022-10-26T14:20:33.858Z,20.30
2022-10-26T14:23:02.500Z,20.30
2022-10-26T14:25:42.547Z,20.30
2022-10-26T14:28:27.013Z,20.30
2022-10-26T14:30:57.265Z,20.30
2022-10-26T14:33:30.354Z,20.30
2022-10-26T14:36:00.100Z,20.30
2022-10-26T14:38:33.830Z,20.30
2022-10-26T14:41:03.141Z,20.30
2022-10-26T14:43:33.380Z,20.30
2022-10-26T14:46:02.007Z,20.30
2022-10-26T14:48:34.808Z,20.40
2022-10-26T14:51:12.636Z,20.40
2022-10-26T14:53:43.043Z,20.40
2022-10-26T14:56:30.119Z,20.40
2022-10-26T14:59:00.919Z,20.40
2022-10-26T15:01:36.616Z,20.40
2022-10-26T15:04:08.078Z,20.40
2022-10-26T15:06:43.399Z,20.40
2022-10-26T15:09:44.587Z,20.40
2022-10-26T15:12:33.597Z,20.40
2022-10-26T15:17:57.301Z,20.50
2022-10-26T15:20:28.479Z,20.40
2022-10-26T15:23:00.078Z,20.40
2022-10-26T15:25:31.635Z,20.40
2022-10-26T15:28:12.217Z,20.40
2022-10-26T15:30:42.116Z,20.40
2022-10-26T15:33:22.396Z,20.40
2022-10-26T15:35:51.010Z,20.40
2022-10-26T15:38:19.742Z,20.40
2022-10-26T15:40:48.269Z,20.30
2022-10-26T15:43:16.843Z,20.30
2022-10-26T15:45:49.169Z,20.30
2022-10-26T15:48:24.015Z,20.30
2022-10-26T15:50:52.603Z,20.20
2022-10-26T15:53:27.453Z,20.20
2022-10-26T15:55:58.536Z,20.10
2022-10-26T15:58:28.155Z,20.10
2022-10-26T16:00:58.257Z,20.10
2022-10-26T16:03:28.200Z,20.00
2022-10-26T16:06:28.281Z,19.90
2022-10-26T16:09:00.363Z,19.90
2022-10-26T16:11:29.391Z,19.80
2022-10-26T16:14:01.090Z,19.80
2022-10-26T16:16:33.657Z,19.80
2022-10-26T16:19:25.478Z,19.70
2022-10-26T16:21:52.815Z,19.70
2022-10-26T16:24:21.630Z,19.60
2022-10-26T16:26:50.321Z,19.60
2022-10-26T16:29:19.525Z,19.50
2022-10-26T16:31:49.829Z,19.50
2022-10-26T16:34:18.533Z,19.40
2022-10-26T16:36:47.128Z,19.30
2022-10-26T16:39:15.789Z,19.30
2022-10-26T16:41:44.290Z,19.20
2022-10-26T16:44:33.109Z,19.20
2022-10-26T16:47:03.024Z,19.10
2022-10-26T16:49:31.626Z,19.10
2022-10-26T16:52:00.125Z,19.00
2022-10-26T16:54:31.077Z,19.00
2022-10-26T16:56:59.616Z,18.90
2022-10-26T16:59:28.176Z,18.90
2022-10-26T17:01:56.781Z,18.80
2022-10-26T17:04:26.841Z,18.80
2022-10-26T17:06:55.365Z,18.70
2022-10-26T17:09:23.924Z,18.70
2022-10-26T17:11:54.224Z,18.60
2022-10-26T17:14:24.019Z,18.60
2022-10-26T17:16:52.637Z,18.50
2022-10-26T17:19:21.145Z,18.50
2022-10-26T17:21:51.064Z,18.40
2022-10-26T17:24:19.656Z,18.40
2022-10-26T17:26:48.198Z,18.30
2022-10-26T17:29:16.967Z,18.30
2022-10-26T17:31:45.551Z,18.20
2022-10-26T17:34:14.067Z,18.10
2022-10-26T17:36:42.580Z,18.10
2022-10-26T17:39:12.530Z,18.00
2022-10-26T17:41:41.028Z,18.00
2022-10-26T17:44:09.716Z,17.90
2022-10-26T17:46:38.363Z,17.90
2022-10-26T17:49:07.179Z,17.90
2022-10-26T17:51:35.693Z,17.80
2022-10-26T17:54:04.902Z,17.70
2022-10-26T17:56:35.360Z,17.70
2022-10-26T17:59:06.588Z,17.60
2022-10-26T18:01:35.171Z,17.60
2022-10-26T18:04:03.855Z,17.50
2022-10-26T18:06:32.386Z,17.50
2022-10-26T18:09:01.418Z,17.40
2022-10-26T18:14:05.051Z,17.30
2022-10-26T18:16:33.642Z,17.20
2022-10-26T18:19:05.741Z,17.20
2022-10-26T18:21:38.455Z,17.20
2022-10-26T18:24:08.801Z,17.10
2022-10-26T18:26:37.757Z,17.10
2022-10-26T18:29:07.920Z,17.00
2022-10-26T18:31:36.645Z,17.00
2022-10-26T18:34:07.592Z,17.00
2022-10-26T18:39:05.365Z,16.90
2022-10-26T18:41:33.943Z,16.80
2022-10-26T18:44:02.646Z,16.80
2022-10-26T18:46:35.506Z,16.80
2022-10-26T18:49:06.332Z,16.70
2022-10-26T18:51:36.005Z,16.70
2022-10-26T18:54:04.688Z,16.60
2022-10-26T18:56:33.225Z,16.60
2022-10-26T18:59:02.430Z,16.60
2022-10-26T19:01:34.948Z,16.60
2022-10-26T19:04:06.973Z,16.50
2022-10-26T19:06:38.438Z,16.50
2022-10-26T19:09:10.696Z,16.50
2022-10-26T19:11:42.217Z,16.40
2022-10-26T19:14:12.419Z,16.40
2022-10-26T19:16:47.156Z,16.40
2022-10-26T19:19:17.058Z,16.30
2022-10-26T19:21:46.589Z,16.30
2022-10-26T19:24:17.642Z,16.30
2022-10-26T19:26:47.994Z,16.30
2022-10-26T19:29:18.669Z,16.20
2022-10-26T19:31:52.446Z,16.20
2022-10-26T19:34:21.819Z,16.20
2022-10-26T19:36:50.677Z,16.10
2022-10-26T19:39:19.511Z,16.10
2022-10-26T19:41:48.198Z,16.10
2022-10-26T19:44:17.380Z,16.10
2022-10-26T19:46:49.809Z,16.00
2022-10-26T19:49:19.044Z,16.00
2022-10-26T19:51:48.320Z,16.00
2022-10-26T19:54:17.517Z,15.90
2022-10-26T19:56:46.103Z,16.00
2022-10-26T19:59:15.259Z,15.90
2022-10-26T20:01:43.794Z,15.90
2022-10-26T20:04:13.785Z,15.90
2022-10-26T20:06:42.296Z,15.90
2022-10-26T20:09:11.467Z,15.80
2022-10-26T20:11:43.037Z,15.80
2022-10-26T20:14:14.113Z,15.80
2022-10-26T20:16:45.157Z,15.80
2022-10-26T20:19:15.404Z,15.80
2022-10-26T20:21:44.234Z,15.70
2022-10-26T20:24:13.290Z,15.70
2022-10-26T20:26:42.201Z,15.70
2022-10-26T20:29:12.460Z,15.70
2022-10-26T20:31:42.021Z,15.60
2022-10-26T20:34:10.914Z,15.60
2022-10-26T20:36:41.750Z,15.50
2022-10-26T20:39:11.528Z,15.60
2022-10-26T20:41:44.305Z,15.50
2022-10-26T20:44:22.054Z,15.50
2022-10-26T20:46:51.612Z,15.50
2022-10-26T20:49:20.997Z,15.40
2022-10-26T20:52:20.186Z,15.40
2022-10-26T20:54:52.060Z,15.40
2022-10-26T20:57:28.871Z,15.40
2022-10-26T21:00:04.155Z,15.40
2022-10-26T21:02:33.016Z,15.30
2022-10-26T21:05:01.659Z,15.30
2022-10-26T21:07:31.832Z,15.30
2022-10-26T21:10:00.654Z,15.30
2022-10-26T21:12:29.688Z,15.30
2022-10-26T21:14:58.260Z,15.20
2022-10-26T21:17:27.025Z,15.20
2022-10-26T21:19:55.621Z,15.20
2022-10-26T21:22:24.146Z,15.20
2022-10-26T21:24:54.064Z,15.20
2022-10-26T21:27:22.808Z,15.20
2022-10-26T21:29:51.339Z,15.10
2022-10-26T21:32:20.086Z,15.10
2022-10-26T21:34:49.108Z,15.10
2022-10-26T21:37:17.790Z,15.10
2022-10-26T21:39:46.353Z,15.10
2022-10-26T21:42:16.318Z,15.00
2022-10-26T21:44:44.899Z,15.00
2022-10-26T21:47:13.746Z,15.00
2022-10-26T21:52:15.821Z,15.00
2022-10-26T21:54:44.729Z,14.90
2022-10-26T21:57:13.827Z,14.90
2022-10-26T21:59:45.458Z,14.90
2022-10-26T22:02:14.066Z,14.90
2022-10-26T22:04:42.612Z,14.90
2022-10-26T22:07:11.128Z,14.80
2022-10-26T22:09:49.417Z,14.80
2022-10-26T22:12:28.204Z,14.80
2022-10-26T22:14:58.083Z,14.80
2022-10-26T22:17:26.595Z,14.80
2022-10-26T22:19:55.155Z,14.80
2022-10-26T22:22:23.695Z,14.70
2022-10-26T22:26:07.302Z,14.70
2022-10-26T22:28:39.989Z,14.70
2022-10-26T22:31:15.188Z,14.70
2022-10-26T22:33:44.376Z,14.60
2022-10-26T22:36:15.144Z,14.70
2022-10-26T22:38:44.367Z,14.70
2022-10-26T22:41:13.334Z,14.60
2022-10-26T22:43:41.878Z,14.60
2022-10-26T22:46:15.208Z,14.60
2022-10-26T22:48:45.444Z,14.60
2022-10-26T22:51:16.927Z,14.60
2022-10-26T22:53:45.627Z,14.50
2022-10-26T22:56:15.520Z,14.50
2022-10-26T22:58:44.135Z,14.50
2022-10-26T23:01:17.524Z,14.50
2022-10-26T23:03:46.236Z,14.50
2022-10-26T23:06:17.512Z,14.40
2022-10-26T23:08:46.472Z,14.40
2022-10-26T23:11:17.598Z,14.40
2022-10-26T23:13:46.850Z,14.40
2022-10-26T23:16:19.076Z,14.40
2022-10-26T23:18:48.655Z,14.30
2022-10-26T23:21:18.395Z,14.30
2022-10-26T23:23:46.993Z,14.20
2022-10-26T23:26:17.775Z,14.30
2022-10-26T23:28:46.887Z,14.20
2022-10-26T23:31:19.417Z,14.20
2022-10-26T23:33:50.727Z,14.20
2022-10-26T23:36:19.550Z,14.20
2022-10-26T23:38:48.545Z,14.20
2022-10-26T23:41:17.096Z,14.20
2022-10-26T23:43:45.713Z,14.20
2022-10-26T23:46:14.383Z,14.20
2022-10-26T23:48:44.387Z,14.20
2022-10-26T23:51:12.891Z,14.10
2022-10-26T23:53:41.619Z,14.20
2022-10-26T23:56:10.151Z,14.10
2022-10-26T23:58:38.692Z,14.10
